createdAt,value
2019-04-30T00:00:39.958Z,9.7
2019-04-30T00:01:39.979Z,9.7
2019-04-30T00:02:40.166Z,9.6
2019-04-30T00:03:40.039Z,9.6
2019-04-30T00:04:40.450Z,9.5
2019-04-30T00:05:40.052Z,9.5
2019-04-30T00:06:40.106Z,9.4
2019-04-30T00:07:40.114Z,9.4
2019-04-30T00:08:40.148Z,9.3
2019-04-30T00:09:40.142Z,9.3
2019-04-30T00:10:41.437Z,9.3
2019-04-30T00:11:40.185Z,9.2
2019-04-30T00:12:40.209Z,9.2
2019-04-30T00:13:40.218Z,9.2
2019-04-30T00:14:41.289Z,9.2
2019-04-30T00:15:40.273Z,9.1
2019-04-30T00:16:40.282Z,9
2019-04-30T00:17:40.294Z,9
2019-04-30T00:18:53.224Z,8.9
2019-04-30T00:19:40.339Z,8.9
2019-04-30T00:20:40.507Z,8.8
2019-04-30T00:21:40.365Z,8.8
2019-04-30T00:22:46.949Z,8.7
2019-04-30T00:23:40.373Z,8.7
2019-04-30T00:24:44.729Z,8.6
2019-04-30T00:25:40.377Z,8.6
2019-04-30T00:26:44.914Z,8.6
2019-04-30T00:27:40.415Z,8.5
2019-04-30T00:28:44.285Z,8.5
2019-04-30T00:29:40.420Z,8.5
2019-04-30T00:30:43.863Z,8.5
2019-04-30T00:31:40.424Z,8.4
2019-04-30T00:32:43.540Z,8.4
2019-04-30T00:33:40.435Z,8.4
2019-04-30T00:34:40.464Z,8.4
2019-04-30T00:35:40.449Z,8.4
2019-04-30T00:36:40.452Z,8.3
2019-04-30T00:37:40.477Z,8.3
2019-04-30T00:38:40.456Z,8.3
2019-04-30T00:39:44.068Z,8.3
2019-04-30T00:40:40.453Z,8.2
2019-04-30T00:41:43.974Z,8.2
2019-04-30T00:43:00.088Z,8.2
2019-04-30T00:43:46.327Z,8.1
2019-04-30T00:44:40.675Z,8.1
2019-04-30T00:45:44.639Z,8.1
2019-04-30T00:46:40.808Z,8
2019-04-30T00:47:44.363Z,8
2019-04-30T00:48:40.917Z,8
2019-04-30T00:49:40.966Z,7.9
2019-04-30T00:50:41.041Z,7.9
2019-04-30T00:51:41.103Z,7.9
2019-04-30T00:52:41.156Z,7.9
2019-04-30T00:53:43.761Z,7.8
2019-04-30T00:54:41.299Z,7.8
2019-04-30T00:55:44.831Z,7.8
2019-04-30T00:56:41.356Z,7.8
2019-04-30T00:57:43.524Z,7.8
2019-04-30T00:58:41.389Z,7.7
2019-04-30T00:59:44.504Z,7.7
2019-04-30T01:00:41.507Z,7.7
2019-04-30T01:01:43.467Z,7.6
2019-04-30T01:02:41.536Z,7.6
2019-04-30T01:03:44.290Z,7.6
2019-04-30T01:04:41.598Z,7.6
2019-04-30T01:05:44.403Z,7.6
2019-04-30T01:06:41.626Z,7.5
2019-04-30T01:07:48.495Z,7.5
2019-04-30T01:08:41.728Z,7.5
2019-04-30T01:09:44.450Z,7.5
2019-04-30T01:10:41.813Z,7.4
2019-04-30T01:11:44.671Z,7.4
2019-04-30T01:12:47.003Z,7.4
2019-04-30T01:13:49.866Z,7.4
2019-04-30T01:14:41.955Z,7.3
2019-04-30T01:15:43.859Z,7.3
2019-04-30T01:16:42.004Z,7.3
2019-04-30T01:17:45.269Z,7.2
2019-04-30T01:18:42.039Z,7.2
2019-04-30T01:19:45.861Z,7.2
2019-04-30T01:20:42.147Z,7.2
2019-04-30T01:21:46.902Z,7.2
2019-04-30T01:22:42.171Z,7.1
2019-04-30T01:23:48.908Z,7.1
2019-04-30T01:24:42.207Z,7.1
2019-04-30T01:25:43.083Z,7.1
2019-04-30T01:26:42.325Z,7.1
2019-04-30T01:27:45.524Z,7
2019-04-30T01:28:42.387Z,7
2019-04-30T01:29:44.327Z,7
2019-04-30T01:30:42.418Z,6.9
2019-04-30T01:31:42.429Z,6.9
2019-04-30T01:32:42.478Z,6.9
2019-04-30T01:33:42.486Z,6.9
2019-04-30T01:34:44.116Z,6.8
2019-04-30T01:35:42.529Z,6.8
2019-04-30T01:36:43.399Z,6.8
2019-04-30T01:37:42.642Z,6.7
2019-04-30T01:38:44.733Z,6.7
2019-04-30T01:39:42.625Z,6.7
2019-04-30T01:40:46.959Z,6.7
2019-04-30T01:41:42.672Z,6.6
2019-04-30T01:42:47.874Z,6.6
2019-04-30T01:43:42.727Z,6.6
2019-04-30T01:44:43.386Z,6.6
2019-04-30T01:45:42.761Z,6.5
2019-04-30T01:46:43.168Z,6.5
2019-04-30T01:47:42.861Z,6.5
2019-04-30T01:48:43.521Z,6.5
2019-04-30T01:49:44.806Z,6.4
2019-04-30T01:50:42.944Z,6.4
2019-04-30T01:51:42.958Z,6.4
2019-04-30T01:52:42.988Z,6.4
2019-04-30T01:53:45.226Z,6.4
2019-04-30T01:54:42.988Z,6.3
2019-04-30T01:55:43.025Z,6.3
2019-04-30T01:56:42.999Z,6.3
2019-04-30T01:57:43.022Z,6.3
2019-04-30T01:58:43.060Z,6.3
2019-04-30T01:59:43.070Z,6.2
2019-04-30T02:00:43.086Z,6.2
2019-04-30T02:01:43.122Z,6.2
2019-04-30T02:02:43.132Z,6.2
2019-04-30T02:03:43.195Z,6.2
2019-04-30T02:04:43.170Z,6.2
2019-04-30T02:05:43.199Z,6.2
2019-04-30T02:06:43.238Z,6.2
2019-04-30T02:07:45.758Z,6.1
2019-04-30T02:08:43.263Z,6.1
2019-04-30T02:09:43.307Z,6.1
2019-04-30T02:10:43.298Z,6.1
2019-04-30T02:11:43.345Z,6.1
2019-04-30T02:12:43.384Z,6.1
2019-04-30T02:13:43.349Z,6
2019-04-30T02:14:43.381Z,6
2019-04-30T02:15:43.386Z,6
2019-04-30T02:16:43.416Z,6
2019-04-30T02:17:43.420Z,6
2019-04-30T02:18:43.524Z,5.9
2019-04-30T02:19:54.043Z,5.9
2019-04-30T02:20:43.443Z,5.9
2019-04-30T02:21:43.560Z,5.9
2019-04-30T02:22:43.491Z,5.8
2019-04-30T02:23:43.483Z,5.8
2019-04-30T02:24:43.466Z,5.8
2019-04-30T02:25:46.001Z,5.8
2019-04-30T02:26:43.504Z,5.8
2019-04-30T02:27:43.504Z,5.8
2019-04-30T02:28:43.488Z,5.8
2019-04-30T02:29:43.760Z,5.7
2019-04-30T02:30:43.547Z,5.7
2019-04-30T02:31:43.581Z,5.7
2019-04-30T02:32:43.670Z,5.7
2019-04-30T02:33:43.728Z,5.6
2019-04-30T02:34:44.291Z,5.6
2019-04-30T02:35:43.805Z,5.6
2019-04-30T02:36:43.868Z,5.6
2019-04-30T02:37:43.925Z,5.6
2019-04-30T02:38:43.985Z,5.5
2019-04-30T02:39:44.069Z,5.5
2019-04-30T02:40:44.062Z,5.5
2019-04-30T02:41:44.156Z,5.5
2019-04-30T02:42:44.217Z,5.5
2019-04-30T02:43:44.269Z,5.5
2019-04-30T02:44:44.314Z,5.5
2019-04-30T02:45:44.368Z,5.5
2019-04-30T02:46:44.427Z,5.5
2019-04-30T02:47:44.477Z,5.5
2019-04-30T02:48:44.489Z,5.5
2019-04-30T02:49:44.571Z,5.6
2019-04-30T02:50:44.806Z,5.6
2019-04-30T02:51:44.623Z,5.6
2019-04-30T02:52:44.634Z,5.6
2019-04-30T02:53:44.653Z,5.6
2019-04-30T02:54:44.648Z,5.6
2019-04-30T02:55:44.719Z,5.6
2019-04-30T02:56:44.790Z,5.6
2019-04-30T02:57:44.843Z,5.6
2019-04-30T02:58:44.897Z,5.6
2019-04-30T02:59:44.960Z,5.6
2019-04-30T03:00:44.955Z,5.6
2019-04-30T03:01:45.002Z,5.6
2019-04-30T03:02:45.029Z,5.6
2019-04-30T03:03:45.369Z,5.6
2019-04-30T03:04:45.141Z,5.6
2019-04-30T03:05:45.274Z,5.6
2019-04-30T03:06:45.250Z,5.6
2019-04-30T03:07:45.301Z,5.6
2019-04-30T03:08:45.335Z,5.5
2019-04-30T03:09:45.377Z,5.5
2019-04-30T03:10:45.429Z,5.5
2019-04-30T03:11:45.493Z,5.5
2019-04-30T03:12:45.508Z,5.4
2019-04-30T03:13:45.544Z,5.4
2019-04-30T03:14:45.611Z,5.4
2019-04-30T03:15:45.661Z,5.4
2019-04-30T03:16:45.671Z,5.4
2019-04-30T03:17:45.726Z,5.4
2019-04-30T03:18:45.777Z,5.3
2019-04-30T03:19:45.806Z,5.3
2019-04-30T03:20:45.829Z,5.3
2019-04-30T03:21:45.873Z,5.3
2019-04-30T03:22:45.918Z,5.3
2019-04-30T03:23:45.933Z,5.3
2019-04-30T03:24:45.996Z,5.3
2019-04-30T03:25:45.998Z,5.3
2019-04-30T03:26:46.048Z,5.3
2019-04-30T03:27:46.117Z,5.3
2019-04-30T03:28:46.093Z,5.3
2019-04-30T03:29:50.206Z,5.2
2019-04-30T03:30:46.157Z,5.2
2019-04-30T03:31:46.159Z,5.2
2019-04-30T03:32:52.037Z,5.2
2019-04-30T03:33:46.184Z,5.2
2019-04-30T03:34:46.231Z,5.2
2019-04-30T03:35:47.550Z,5.2
2019-04-30T03:36:46.284Z,5.1
2019-04-30T03:37:46.401Z,5.2
2019-04-30T03:38:46.329Z,5.1
2019-04-30T03:39:46.365Z,5.1
2019-04-30T03:40:46.392Z,5.1
2019-04-30T03:41:46.420Z,5.1
2019-04-30T03:42:49.276Z,5.1
2019-04-30T03:43:46.440Z,5.1
2019-04-30T03:44:49.347Z,5.1
2019-04-30T03:45:46.490Z,5.1
2019-04-30T03:46:49.588Z,5.1
2019-04-30T03:47:46.523Z,5.1
2019-04-30T03:48:46.585Z,5.1
2019-04-30T03:49:46.575Z,5.1
2019-04-30T03:50:53.103Z,5.1
2019-04-30T03:51:46.581Z,5.2
2019-04-30T03:52:46.607Z,5.2
2019-04-30T03:53:49.566Z,5.2
2019-04-30T03:54:49.272Z,5.2
2019-04-30T03:55:46.627Z,5.2
2019-04-30T03:56:49.794Z,5.2
2019-04-30T03:57:46.668Z,5.3
2019-04-30T03:58:46.688Z,5.3
2019-04-30T03:59:46.691Z,5.3
2019-04-30T04:00:46.819Z,5.3
2019-04-30T04:01:46.723Z,5.3
2019-04-30T04:02:46.726Z,5.3
2019-04-30T04:03:46.730Z,5.3
2019-04-30T04:04:49.412Z,5.3
2019-04-30T04:05:46.749Z,5.4
2019-04-30T04:06:49.007Z,5.4
2019-04-30T04:07:46.750Z,5.4
2019-04-30T04:08:49.004Z,5.4
2019-04-30T04:09:46.770Z,5.4
2019-04-30T04:10:46.782Z,5.4
2019-04-30T04:11:46.762Z,5.4
2019-04-30T04:12:49.592Z,5.4
2019-04-30T04:13:49.406Z,5.4
2019-04-30T04:14:46.881Z,5.4
2019-04-30T04:15:49.717Z,5.5
2019-04-30T04:16:47.019Z,5.5
2019-04-30T04:17:47.026Z,5.5
2019-04-30T04:18:49.784Z,5.5
2019-04-30T04:19:49.319Z,5.5
2019-04-30T04:20:50.158Z,5.5
2019-04-30T04:21:47.275Z,5.5
2019-04-30T04:22:49.441Z,5.6
2019-04-30T04:23:49.263Z,5.6
2019-04-30T04:24:50.045Z,5.6
2019-04-30T04:25:49.785Z,5.6
2019-04-30T04:26:49.877Z,5.6
2019-04-30T04:27:47.523Z,5.6
2019-04-30T04:28:49.577Z,5.6
2019-04-30T04:29:50.543Z,5.7
2019-04-30T04:30:50.263Z,5.7
2019-04-30T04:31:50.023Z,5.7
2019-04-30T04:32:50.008Z,5.7
2019-04-30T04:33:49.523Z,5.7
2019-04-30T04:34:50.030Z,5.7
2019-04-30T04:35:49.750Z,5.7
2019-04-30T04:36:50.434Z,5.7
2019-04-30T04:37:49.364Z,5.7
2019-04-30T04:38:50.529Z,5.7
2019-04-30T04:39:49.988Z,5.7
2019-04-30T04:40:50.149Z,5.7
2019-04-30T04:41:50.205Z,5.7
2019-04-30T04:42:49.213Z,5.7
2019-04-30T04:43:50.285Z,5.7
2019-04-30T04:44:50.073Z,5.7
2019-04-30T04:45:49.713Z,5.8
2019-04-30T04:46:50.266Z,5.8
2019-04-30T04:47:50.310Z,5.8
2019-04-30T04:48:49.312Z,5.8
2019-04-30T04:49:50.666Z,5.8
2019-04-30T04:50:50.029Z,5.8
2019-04-30T04:51:50.710Z,5.8
2019-04-30T04:52:49.520Z,5.8
2019-04-30T04:53:49.983Z,5.8
2019-04-30T04:54:50.532Z,5.8
2019-04-30T04:55:49.849Z,5.8
2019-04-30T04:56:50.374Z,5.8
2019-04-30T04:57:50.001Z,5.9
2019-04-30T04:58:50.136Z,5.9
2019-04-30T04:59:49.834Z,5.9
2019-04-30T05:00:49.426Z,5.9
2019-04-30T05:01:48.995Z,5.9
2019-04-30T05:02:49.729Z,5.9
2019-04-30T05:03:49.056Z,5.9
2019-04-30T05:04:49.162Z,5.9
2019-04-30T05:05:49.890Z,5.9
2019-04-30T05:06:49.752Z,5.9
2019-04-30T05:07:48.904Z,5.9
2019-04-30T05:08:49.295Z,5.9
2019-04-30T05:09:49.037Z,5.9
2019-04-30T05:10:49.463Z,6
2019-04-30T05:11:49.076Z,6
2019-04-30T05:12:50.916Z,6
2019-04-30T05:13:49.176Z,6
2019-04-30T05:14:49.213Z,6
2019-04-30T05:15:51.502Z,6.1
2019-04-30T05:16:49.289Z,6.1
2019-04-30T05:17:49.563Z,6.1
2019-04-30T05:18:49.390Z,6.1
2019-04-30T05:19:49.372Z,6.1
2019-04-30T05:20:49.391Z,6.1
2019-04-30T05:21:51.662Z,6.1
2019-04-30T05:22:49.422Z,6.1
2019-04-30T05:23:49.423Z,6.1
2019-04-30T05:24:49.451Z,6.2
2019-04-30T05:25:49.487Z,6.2
2019-04-30T05:26:49.515Z,6.2
2019-04-30T05:27:49.529Z,6.2
2019-04-30T05:28:52.740Z,6.2
2019-04-30T05:29:49.929Z,6.2
2019-04-30T05:30:49.584Z,6.2
2019-04-30T05:31:49.624Z,6.2
2019-04-30T05:32:50.821Z,6.2
2019-04-30T05:33:49.655Z,6.2
2019-04-30T05:34:49.805Z,6.2
2019-04-30T05:35:49.713Z,6.2
2019-04-30T05:36:49.724Z,6.2
2019-04-30T05:37:49.751Z,6.2
2019-04-30T05:38:49.766Z,6.3
2019-04-30T05:39:49.798Z,6.3
2019-04-30T05:40:49.813Z,6.3
2019-04-30T05:41:49.832Z,6.3
2019-04-30T05:42:49.857Z,6.3
2019-04-30T05:43:49.875Z,6.3
2019-04-30T05:44:49.925Z,6.3
2019-04-30T05:45:49.924Z,6.4
2019-04-30T05:46:49.976Z,6.4
2019-04-30T05:47:50.513Z,6.4
2019-04-30T05:48:49.971Z,6.4
2019-04-30T05:49:49.976Z,6.4
2019-04-30T05:50:51.708Z,6.4
2019-04-30T05:51:54.983Z,6.4
2019-04-30T05:52:50.013Z,6.5
2019-04-30T05:53:50.050Z,6.5
2019-04-30T05:54:50.047Z,6.5
2019-04-30T05:55:50.053Z,6.5
2019-04-30T05:56:50.105Z,6.5
2019-04-30T05:57:55.735Z,6.5
2019-04-30T05:58:50.079Z,6.5
2019-04-30T05:59:50.122Z,6.6
2019-04-30T06:00:50.139Z,6.6
2019-04-30T06:01:50.733Z,6.6
2019-04-30T06:03:05.636Z,6.6
2019-04-30T06:03:50.142Z,6.7
2019-04-30T06:04:50.142Z,6.7
2019-04-30T06:05:50.154Z,6.7
2019-04-30T06:06:50.261Z,6.7
2019-04-30T06:07:51.927Z,6.8
2019-04-30T06:08:50.158Z,6.8
2019-04-30T06:09:50.193Z,6.8
2019-04-30T06:10:51.746Z,6.8
2019-04-30T06:11:50.169Z,6.9
2019-04-30T06:12:50.179Z,6.9
2019-04-30T06:13:50.254Z,6.9
2019-04-30T06:14:51.812Z,6.9
2019-04-30T06:15:50.334Z,7
2019-04-30T06:16:51.714Z,7
2019-04-30T06:17:59.511Z,7
2019-04-30T06:18:50.524Z,7.1
2019-04-30T06:19:51.396Z,7.1
2019-04-30T06:20:50.629Z,7.1
2019-04-30T06:21:50.667Z,7.2
2019-04-30T06:22:52.146Z,7.2
2019-04-30T06:23:50.729Z,7.2
2019-04-30T06:24:50.809Z,7.2
2019-04-30T06:25:56.979Z,7.3
2019-04-30T06:26:53.199Z,7.3
2019-04-30T06:27:50.904Z,7.4
2019-04-30T06:28:50.941Z,7.5
2019-04-30T06:29:52.080Z,7.6
2019-04-30T06:30:51.073Z,7.6
2019-04-30T06:31:51.151Z,7.7
2019-04-30T06:32:51.185Z,7.9
2019-04-30T06:33:51.249Z,8
2019-04-30T06:34:51.238Z,8.1
2019-04-30T06:35:51.290Z,8.2
2019-04-30T06:36:53.782Z,8.4
2019-04-30T06:37:51.401Z,8.5
2019-04-30T06:38:51.391Z,8.7
2019-04-30T06:39:51.419Z,8.8
2019-04-30T06:40:51.486Z,8.9
2019-04-30T06:41:51.558Z,8.9
2019-04-30T06:42:51.592Z,8.9
2019-04-30T06:43:51.623Z,9
2019-04-30T06:44:51.672Z,9
2019-04-30T06:45:51.666Z,9.1
2019-04-30T06:46:51.669Z,9.2
2019-04-30T06:47:51.707Z,9.3
2019-04-30T06:48:51.764Z,9.4
2019-04-30T06:49:51.794Z,9.5
2019-04-30T06:50:51.822Z,9.6
2019-04-30T06:51:51.873Z,9.7
2019-04-30T06:52:56.720Z,9.7
2019-04-30T06:53:51.957Z,9.8
2019-04-30T06:54:52.008Z,9.8
2019-04-30T06:55:52.062Z,9.8
2019-04-30T06:56:52.106Z,9.8
2019-04-30T06:57:52.104Z,9.9
2019-04-30T06:58:52.625Z,10
2019-04-30T06:59:52.102Z,10
2019-04-30T07:00:52.178Z,10.1
2019-04-30T07:01:52.214Z,10.1
2019-04-30T07:02:52.203Z,10.2
2019-04-30T07:03:52.253Z,10.3
2019-04-30T07:04:52.254Z,10.3
2019-04-30T07:05:52.254Z,10.4
2019-04-30T07:06:52.288Z,10.5
2019-04-30T07:07:53.255Z,10.6
2019-04-30T07:08:55.800Z,10.6
2019-04-30T07:09:56.870Z,10.6
2019-04-30T07:10:55.502Z,10.7
2019-04-30T07:11:52.502Z,10.7
2019-04-30T07:12:52.502Z,10.8
2019-04-30T07:13:52.611Z,10.8
2019-04-30T07:14:52.679Z,10.9
2019-04-30T07:15:52.625Z,10.9
2019-04-30T07:16:52.637Z,11
2019-04-30T07:17:52.668Z,11
2019-04-30T07:18:52.738Z,11.1
2019-04-30T07:19:56.474Z,11.1
2019-04-30T07:20:52.769Z,11.2
2019-04-30T07:21:52.797Z,11.2
2019-04-30T07:23:00.113Z,11.3
2019-04-30T07:23:52.830Z,11.4
2019-04-30T07:24:52.888Z,11.4
2019-04-30T07:25:52.880Z,11.5
2019-04-30T07:26:54.601Z,11.6
2019-04-30T07:27:52.939Z,11.6
2019-04-30T07:28:55.193Z,11.6
2019-04-30T07:29:52.958Z,11.6
2019-04-30T07:31:07.524Z,11.6
2019-04-30T07:31:52.997Z,11.6
2019-04-30T07:32:53.013Z,11.7
2019-04-30T07:33:54.028Z,11.7
2019-04-30T07:34:53.018Z,11.7
2019-04-30T07:35:53.098Z,11.7
2019-04-30T07:37:10.660Z,11.7
2019-04-30T07:37:54.456Z,11.8
2019-04-30T07:38:56.318Z,11.9
2019-04-30T07:39:53.092Z,11.9
2019-04-30T07:40:53.117Z,12
2019-04-30T07:41:53.128Z,12
2019-04-30T07:42:53.190Z,12.1
2019-04-30T07:43:53.156Z,12.2
2019-04-30T07:44:53.153Z,12.2
2019-04-30T07:45:53.219Z,12.2
2019-04-30T07:46:53.165Z,12.3
2019-04-30T07:47:53.164Z,12.4
2019-04-30T07:48:53.165Z,12.4
2019-04-30T07:49:55.855Z,12.5
2019-04-30T07:50:53.210Z,12.6
2019-04-30T07:51:53.715Z,12.6
2019-04-30T07:53:02.379Z,12.6
2019-04-30T07:53:53.190Z,12.6
2019-04-30T07:54:53.188Z,12.6
2019-04-30T07:55:53.203Z,12.5
2019-04-30T07:56:53.220Z,12.5
2019-04-30T07:57:53.198Z,12.6
2019-04-30T07:58:53.200Z,12.6
2019-04-30T07:59:53.236Z,12.7
2019-04-30T08:00:56.101Z,12.8
2019-04-30T08:02:03.921Z,12.9
2019-04-30T08:02:53.410Z,13
2019-04-30T08:03:53.710Z,13.1
2019-04-30T08:04:53.485Z,13.1
2019-04-30T08:05:55.767Z,13.1
2019-04-30T08:06:53.619Z,13.1
2019-04-30T08:07:53.647Z,13.1
2019-04-30T08:08:57.401Z,13
2019-04-30T08:09:53.672Z,13
2019-04-30T08:10:53.712Z,13
2019-04-30T08:11:53.794Z,13
2019-04-30T08:12:54.088Z,13
2019-04-30T08:13:53.864Z,13
2019-04-30T08:14:53.914Z,12.9
2019-04-30T08:15:53.965Z,13
2019-04-30T08:16:54.050Z,13
2019-04-30T08:18:02.545Z,13.1
2019-04-30T08:18:54.103Z,13.1
2019-04-30T08:19:54.166Z,13.1
2019-04-30T08:20:54.214Z,13.2
2019-04-30T08:21:54.261Z,13.3
2019-04-30T08:22:54.348Z,13.3
2019-04-30T08:23:54.361Z,13.3
2019-04-30T08:24:54.393Z,13.3
2019-04-30T08:25:54.516Z,13.4
2019-04-30T08:26:54.469Z,13.4
2019-04-30T08:27:54.472Z,13.3
2019-04-30T08:28:54.505Z,13.3
2019-04-30T08:29:54.640Z,13.3
2019-04-30T08:30:54.615Z,13.3
2019-04-30T08:31:54.658Z,13.2
2019-04-30T08:32:54.792Z,13.2
2019-04-30T08:33:54.692Z,13.2
2019-04-30T08:34:54.702Z,13.2
2019-04-30T08:35:54.772Z,13.3
2019-04-30T08:36:54.923Z,13.3
2019-04-30T08:37:54.855Z,13.4
2019-04-30T08:38:55.043Z,13.4
2019-04-30T08:39:54.953Z,13.5
2019-04-30T08:40:58.026Z,13.6
2019-04-30T08:41:55.017Z,13.6
2019-04-30T08:42:55.082Z,13.7
2019-04-30T08:43:55.115Z,13.8
2019-04-30T08:44:55.177Z,13.9
2019-04-30T08:45:55.173Z,14
2019-04-30T08:46:55.223Z,14.1
2019-04-30T08:47:55.280Z,14.2
2019-04-30T08:48:55.314Z,14.3
2019-04-30T08:49:55.411Z,14.4
2019-04-30T08:50:55.372Z,14.5
2019-04-30T08:51:55.440Z,14.6
2019-04-30T08:52:55.403Z,14.7
2019-04-30T08:53:55.445Z,14.8
2019-04-30T08:54:55.473Z,14.8
2019-04-30T08:55:55.521Z,14.9
2019-04-30T08:56:55.585Z,14.9
2019-04-30T08:58:07.435Z,15
2019-04-30T08:58:55.584Z,15
2019-04-30T08:59:55.629Z,15.1
2019-04-30T09:00:55.674Z,15.2
2019-04-30T09:01:55.682Z,15.3
2019-04-30T09:02:55.697Z,15.3
2019-04-30T09:03:55.752Z,15.3
2019-04-30T09:04:55.790Z,15.3
2019-04-30T09:05:55.815Z,15.2
2019-04-30T09:06:55.832Z,15.3
2019-04-30T09:07:55.886Z,15.3
2019-04-30T09:08:55.929Z,15.3
2019-04-30T09:09:55.948Z,15.4
2019-04-30T09:10:55.954Z,15.4
2019-04-30T09:11:56.045Z,15.4
2019-04-30T09:12:56.028Z,15.5
2019-04-30T09:13:56.041Z,15.5
2019-04-30T09:14:56.064Z,15.5
2019-04-30T09:15:56.102Z,15.5
2019-04-30T09:16:56.122Z,15.5
2019-04-30T09:18:01.534Z,15.6
2019-04-30T09:18:56.183Z,15.6
2019-04-30T09:19:56.207Z,15.6
2019-04-30T09:21:04.066Z,15.6
2019-04-30T09:21:56.258Z,15.6
2019-04-30T09:22:56.268Z,15.6
2019-04-30T09:23:56.293Z,15.6
2019-04-30T09:24:56.308Z,15.6
2019-04-30T09:25:58.390Z,15.6
2019-04-30T09:26:56.338Z,15.6
2019-04-30T09:27:56.382Z,15.7
2019-04-30T09:28:56.398Z,15.7
2019-04-30T09:29:56.400Z,15.8
2019-04-30T09:30:58.442Z,15.8
2019-04-30T09:31:56.429Z,15.9
2019-04-30T09:32:56.456Z,15.9
2019-04-30T09:33:57.951Z,16
2019-04-30T09:34:58.523Z,16.1
2019-04-30T09:35:56.549Z,16.1
2019-04-30T09:36:56.474Z,16.1
2019-04-30T09:37:59.546Z,16.1
2019-04-30T09:38:58.713Z,16.2
2019-04-30T09:39:56.499Z,16.3
2019-04-30T09:40:56.508Z,16.4
2019-04-30T09:41:56.528Z,16.4
2019-04-30T09:42:56.525Z,16.4
2019-04-30T09:43:56.511Z,16.5
2019-04-30T09:44:57.729Z,16.5
2019-04-30T09:45:56.542Z,16.6
2019-04-30T09:46:56.543Z,16.6
2019-04-30T09:47:56.567Z,16.7
2019-04-30T09:48:56.627Z,16.7
2019-04-30T09:49:56.886Z,16.8
2019-04-30T09:50:57.119Z,16.8
2019-04-30T09:51:57.315Z,16.8
2019-04-30T09:52:56.794Z,16.8
2019-04-30T09:54:00.356Z,16.7
2019-04-30T09:54:56.925Z,16.7
2019-04-30T09:55:56.935Z,16.7
2019-04-30T09:56:58.856Z,16.7
2019-04-30T09:57:58.670Z,16.7
2019-04-30T09:58:59.030Z,16.7
2019-04-30T09:59:57.068Z,16.7
2019-04-30T10:00:59.184Z,16.7
2019-04-30T10:01:57.116Z,16.7
2019-04-30T10:02:59.279Z,16.8
2019-04-30T10:03:59.399Z,16.8
2019-04-30T10:04:57.561Z,16.8
2019-04-30T10:05:58.994Z,16.8
2019-04-30T10:06:59.412Z,16.8
2019-04-30T10:07:59.134Z,16.8
2019-04-30T10:08:59.406Z,16.8
2019-04-30T10:09:59.036Z,16.9
2019-04-30T10:10:58.769Z,17
2019-04-30T10:11:59.426Z,17
2019-04-30T10:12:59.222Z,17.1
2019-04-30T10:13:57.556Z,17.3
2019-04-30T10:14:59.238Z,17.3
2019-04-30T10:15:58.531Z,17.3
2019-04-30T10:16:59.511Z,17.2
2019-04-30T10:17:57.744Z,17
2019-04-30T10:18:59.185Z,16.9
2019-04-30T10:19:57.813Z,16.9
2019-04-30T10:20:58.843Z,16.9
2019-04-30T10:21:58.952Z,16.9
2019-04-30T10:22:59.606Z,16.9
2019-04-30T10:24:10.418Z,17
2019-04-30T10:24:59.631Z,17.1
2019-04-30T10:25:58.041Z,17.1
2019-04-30T10:26:58.030Z,17.2
2019-04-30T10:27:59.733Z,17.3
2019-04-30T10:28:58.096Z,17.3
2019-04-30T10:29:59.342Z,17.3
2019-04-30T10:30:58.179Z,17.3
2019-04-30T10:31:58.746Z,17.2
2019-04-30T10:32:59.551Z,17.2
2019-04-30T10:33:58.641Z,17.1
2019-04-30T10:34:58.322Z,17.2
2019-04-30T10:35:59.452Z,17.2
2019-04-30T10:36:59.256Z,17.2
2019-04-30T10:37:59.536Z,17.3
2019-04-30T10:38:59.483Z,17.3
2019-04-30T10:39:59.725Z,17.4
2019-04-30T10:40:58.756Z,17.4
2019-04-30T10:41:58.537Z,17.4
2019-04-30T10:42:58.724Z,17.4
2019-04-30T10:43:59.076Z,17.3
2019-04-30T10:45:00.223Z,17.3
2019-04-30T10:45:58.670Z,17.2
2019-04-30T10:46:59.308Z,17.1
2019-04-30T10:47:59.209Z,17.1
2019-04-30T10:48:58.752Z,17
2019-04-30T10:49:58.745Z,16.9
2019-04-30T10:50:59.309Z,16.8
2019-04-30T10:51:59.358Z,16.7
2019-04-30T10:52:59.131Z,16.6
2019-04-30T10:53:59.887Z,16.5
2019-04-30T10:54:59.511Z,16.5
2019-04-30T10:55:59.444Z,16.5
2019-04-30T10:56:59.200Z,16.5
2019-04-30T10:57:59.313Z,16.5
2019-04-30T10:58:58.932Z,16.6
2019-04-30T10:59:58.921Z,16.6
2019-04-30T11:00:59.481Z,16.6
2019-04-30T11:01:59.224Z,16.6
2019-04-30T11:02:59.309Z,16.6
2019-04-30T11:03:59.020Z,16.7
2019-04-30T11:04:59.027Z,16.8
2019-04-30T11:05:59.058Z,16.9
2019-04-30T11:07:00.482Z,17
2019-04-30T11:07:59.439Z,17.2
2019-04-30T11:08:59.139Z,17.3
2019-04-30T11:09:59.148Z,17.5
2019-04-30T11:10:59.165Z,17.6
2019-04-30T11:11:59.428Z,17.7
2019-04-30T11:12:59.279Z,17.9
2019-04-30T11:13:59.218Z,18
2019-04-30T11:14:59.226Z,18.1
2019-04-30T11:16:11.665Z,18.2
2019-04-30T11:16:59.832Z,18.4
2019-04-30T11:17:59.752Z,18.4
2019-04-30T11:18:59.440Z,18.4
2019-04-30T11:19:59.508Z,18.3
2019-04-30T11:20:59.735Z,18.3
2019-04-30T11:21:59.465Z,18.2
2019-04-30T11:22:59.408Z,18.3
2019-04-30T11:23:59.613Z,18.3
2019-04-30T11:25:06.651Z,18.4
2019-04-30T11:25:59.967Z,18.5
2019-04-30T11:27:00.327Z,18.5
2019-04-30T11:27:59.789Z,18.5
2019-04-30T11:28:59.455Z,18.4
2019-04-30T11:30:03.029Z,18.4
2019-04-30T11:30:59.539Z,18.5
2019-04-30T11:31:59.601Z,18.5
2019-04-30T11:32:59.666Z,18.5
2019-04-30T11:33:59.507Z,18.6
2019-04-30T11:34:59.555Z,18.7
2019-04-30T11:36:02.864Z,18.8
2019-04-30T11:36:59.673Z,18.8
2019-04-30T11:37:59.732Z,18.9
2019-04-30T11:38:59.761Z,18.9
2019-04-30T11:39:59.827Z,19
2019-04-30T11:40:59.888Z,19
2019-04-30T11:41:59.937Z,19
2019-04-30T11:42:59.957Z,19.1
2019-04-30T11:44:00.024Z,19.1
2019-04-30T11:45:00.040Z,19.2
2019-04-30T11:46:00.289Z,19.2
2019-04-30T11:47:00.075Z,19.2
2019-04-30T11:48:00.586Z,19.2
2019-04-30T11:49:00.199Z,19.2
2019-04-30T11:50:00.168Z,19.2
2019-04-30T11:51:00.183Z,19.1
2019-04-30T11:52:00.288Z,18.9
2019-04-30T11:53:14.107Z,18.8
2019-04-30T11:54:00.320Z,18.8
2019-04-30T11:55:00.327Z,18.7
2019-04-30T11:56:00.316Z,18.6
2019-04-30T11:57:00.353Z,18.4
2019-04-30T11:58:00.396Z,18.3
2019-04-30T11:59:00.490Z,18.2
2019-04-30T12:00:00.478Z,18.1
2019-04-30T12:01:00.534Z,18
2019-04-30T12:02:00.590Z,18
2019-04-30T12:03:00.598Z,17.9
2019-04-30T12:04:00.673Z,17.9
2019-04-30T12:05:00.715Z,17.8
2019-04-30T12:06:00.757Z,17.7
2019-04-30T12:07:00.805Z,17.7
2019-04-30T12:08:00.858Z,17.6
2019-04-30T12:09:00.909Z,17.5
2019-04-30T12:10:00.957Z,17.4
2019-04-30T12:11:01.006Z,17.3
2019-04-30T12:12:01.039Z,17.2
2019-04-30T12:13:03.574Z,17.1
2019-04-30T12:14:01.125Z,17.1
2019-04-30T12:15:02.791Z,17
2019-04-30T12:16:01.162Z,17
2019-04-30T12:17:01.202Z,16.9
2019-04-30T12:18:01.269Z,16.9
2019-04-30T12:19:01.271Z,16.9
2019-04-30T12:20:01.314Z,17
2019-04-30T12:21:01.349Z,17
2019-04-30T12:22:01.393Z,17.2
2019-04-30T12:23:01.468Z,17.3
2019-04-30T12:24:01.495Z,17.3
2019-04-30T12:25:03.139Z,17.4
2019-04-30T12:26:02.900Z,17.5
2019-04-30T12:27:01.599Z,17.6
2019-04-30T12:28:01.637Z,17.7
2019-04-30T12:29:01.659Z,17.8
2019-04-30T12:30:01.686Z,17.9
2019-04-30T12:31:01.712Z,17.9
2019-04-30T12:32:01.755Z,18
2019-04-30T12:33:01.771Z,18
2019-04-30T12:34:01.795Z,18
2019-04-30T12:35:01.839Z,18
2019-04-30T12:36:01.859Z,18
2019-04-30T12:37:01.903Z,18.1
2019-04-30T12:38:01.984Z,18.2
2019-04-30T12:39:01.967Z,18.3
2019-04-30T12:40:01.983Z,18.4
2019-04-30T12:41:02.016Z,18.5
2019-04-30T12:42:02.263Z,18.6
2019-04-30T12:43:02.076Z,18.7
2019-04-30T12:44:02.114Z,18.8
2019-04-30T12:45:02.137Z,18.8
2019-04-30T12:46:04.937Z,18.8
2019-04-30T12:47:04.657Z,18.7
2019-04-30T12:48:02.192Z,18.7
2019-04-30T12:49:02.253Z,18.8
2019-04-30T12:50:02.241Z,18.8
2019-04-30T12:51:02.265Z,18.9
2019-04-30T12:52:02.298Z,19
2019-04-30T12:53:02.332Z,19.1
2019-04-30T12:54:02.359Z,19.3
2019-04-30T12:55:14.399Z,19.4
2019-04-30T12:56:02.491Z,19.4
2019-04-30T12:57:02.386Z,19.4
2019-04-30T12:58:02.401Z,19.4
2019-04-30T12:59:02.430Z,19.4
2019-04-30T13:00:02.456Z,19.5
2019-04-30T13:01:02.445Z,19.5
2019-04-30T13:02:02.476Z,19.6
2019-04-30T13:03:02.498Z,19.6
2019-04-30T13:04:02.513Z,19.7
2019-04-30T13:05:02.509Z,19.8
2019-04-30T13:06:03.325Z,19.8
2019-04-30T13:07:03.212Z,19.8
2019-04-30T13:08:02.968Z,19.9
2019-04-30T13:09:02.892Z,19.9
2019-04-30T13:10:03.237Z,19.9
2019-04-30T13:11:02.933Z,19.8
2019-04-30T13:12:03.070Z,19.8
2019-04-30T13:13:02.979Z,19.8
2019-04-30T13:14:03.030Z,19.8
2019-04-30T13:15:02.595Z,19.8
2019-04-30T13:16:02.586Z,19.8
2019-04-30T13:17:02.596Z,19.9
2019-04-30T13:18:02.596Z,19.9
2019-04-30T13:19:02.636Z,19.9
2019-04-30T13:20:02.698Z,19.9
2019-04-30T13:21:02.829Z,19.9
2019-04-30T13:22:02.787Z,19.9
2019-04-30T13:23:02.849Z,19.9
2019-04-30T13:24:02.914Z,19.9
2019-04-30T13:25:02.964Z,19.9
2019-04-30T13:26:02.950Z,19.9
2019-04-30T13:27:02.981Z,19.9
2019-04-30T13:28:04.157Z,19.9
2019-04-30T13:29:03.084Z,19.9
2019-04-30T13:30:03.333Z,19.8
2019-04-30T13:31:03.291Z,19.8
2019-04-30T13:32:03.240Z,19.8
2019-04-30T13:33:03.410Z,19.7
2019-04-30T13:34:03.332Z,19.7
2019-04-30T13:35:03.360Z,19.6
2019-04-30T13:36:03.397Z,19.5
2019-04-30T13:37:03.451Z,19.4